sensor_id;sensor_type;location;lat;lon;timestamp;temperature;humidity
10883;DHT22;5494;51.796;10.952;2022-11-20T00:01:38;-2.90;99.90
10883;DHT22;5494;51.796;10.952;2022-11-20T00:04:07;-2.90;99.90
10883;DHT22;5494;51.796;10.952;2022-11-20T00:06:36;-2.90;99.90
10883;DHT22;5494;51.796;10.952;2022-11-20T00:09:05;-2.90;99.90
10883;DHT22;5494;51.796;10.952;2022-11-20T00:11:33;-2.90;99.90
10883;DHT22;5494;51.796;10.952;2022-11-20T00:14:02;-2.90;99.90
10883;DHT22;5494;51.796;10.952;2022-11-20T00:16:32;-3.00;99.90
10883;DHT22;5494;51.796;10.952;2022-11-20T00:19:02;-3.00;99.90
10883;DHT22;5494;51.796;10.952;2022-11-20T00:21:31;-3.00;99.90
10883;DHT22;5494;51.796;10.952;2022-11-20T00:24:00;-3.00;99.90
10883;DHT22;5494;51.796;10.952;2022-11-20T00:26:29;-3.00;99.90
10883;DHT22;5494;51.796;10.952;2022-11-20T00:28:58;-2.90;99.90
10883;DHT22;5494;51.796;10.952;2022-11-20T00:31:29;-2.90;99.90
10883;DHT22;5494;51.796;10.952;2022-11-20T00:34:00;-2.90;99.90
10883;DHT22;5494;51.796;10.952;2022-11-20T00:36:33;-2.90;99.90
10883;DHT22;5494;51.796;10.952;2022-11-20T00:39:02;-3.00;99.90
10883;DHT22;5494;51.796;10.952;2022-11-20T00:41:31;-3.00;99.90
10883;DHT22;5494;51.796;10.952;2022-11-20T00:43:59;-3.00;99.90
10883;DHT22;5494;51.796;10.952;2022-11-20T00:46:28;-3.00;99.90
10883;DHT22;5494;51.796;10.952;2022-11-20T00:48:57;-3.00;99.90
10883;DHT22;5494;51.796;10.952;2022-11-20T00:51:27;-3.00;99.90
10883;DHT22;5494;51.796;10.952;2022-11-20T00:53:56;-3.00;99.90
10883;DHT22;5494;51.796;10.952;2022-11-20T00:56:26;-2.90;99.90
10883;DHT22;5494;51.796;10.952;2022-11-20T00:58:55;-2.90;99.90
10883;DHT22;5494;51.796;10.952;2022-11-20T01:01:27;-2.90;99.90
10883;DHT22;5494;51.796;10.952;2022-11-20T01:03:58;-2.90;99.90
10883;DHT22;5494;51.796;10.952;2022-11-20T01:06:30;-2.90;99.90
10883;DHT22;5494;51.796;10.952;2022-11-20T01:09:03;-2.80;99.90
10883;DHT22;5494;51.796;10.952;2022-11-20T01:11:34;-2.80;99.90
10883;DHT22;5494;51.796;10.952;2022-11-20T01:14:07;-2.70;99.90
10883;DHT22;5494;51.796;10.952;2022-11-20T01:16:40;-2.80;99.90
10883;DHT22;5494;51.796;10.952;2022-11-20T01:19:13;-2.80;99.90
10883;DHT22;5494;51.796;10.952;2022-11-20T01:21:48;-2.90;99.90
10883;DHT22;5494;51.796;10.952;2022-11-20T01:24:19;-3.00;99.90
10883;DHT22;5494;51.796;10.952;2022-11-20T01:26:50;-2.90;99.90
10883;DHT22;5494;51.796;10.952;2022-11-20T01:29:21;-2.90;99.90
10883;DHT22;5494;51.796;10.952;2022-11-20T01:31:51;-2.90;99.90
10883;DHT22;5494;51.796;10.952;2022-11-20T01:34:21;-2.90;99.90
10883;DHT22;5494;51.796;10.952;2022-11-20T01:36:52;-2.90;99.90
10883;DHT22;5494;51.796;10.952;2022-11-20T01:39:23;-2.90;99.90
10883;DHT22;5494;51.796;10.952;2022-11-20T01:41:54;-3.00;99.90
10883;DHT22;5494;51.796;10.952;2022-11-20T01:44:51;-2.90;99.90
10883;DHT22;5494;51.796;10.952;2022-11-20T01:47:27;-2.90;99.90
10883;DHT22;5494;51.796;10.952;2022-11-20T01:50:04;-2.90;99.90
10883;DHT22;5494;51.796;10.952;2022-11-20T01:52:42;-2.90;99.90
10883;DHT22;5494;51.796;10.952;2022-11-20T01:55:19;-2.80;99.90
10883;DHT22;5494;51.796;10.952;2022-11-20T01:57:53;-2.70;99.90
10883;DHT22;5494;51.796;10.952;2022-11-20T02:00:22;-2.80;99.90
10883;DHT22;5494;51.796;10.952;2022-11-20T02:02:54;-2.90;99.90
10883;DHT22;5494;51.796;10.952;2022-11-20T02:05:30;-2.90;99.90
10883;DHT22;5494;51.796;10.952;2022-11-20T02:08:05;-3.00;99.90
10883;DHT22;5494;51.796;10.952;2022-11-20T02:10:35;-3.00;99.90
10883;DHT22;5494;51.796;10.952;2022-11-20T02:13:04;-3.10;99.90
10883;DHT22;5494;51.796;10.952;2022-11-20T02:15:50;-3.20;99.90
10883;DHT22;5494;51.796;10.952;2022-11-20T02:18:20;-3.30;99.90
10883;DHT22;5494;51.796;10.952;2022-11-20T02:20:53;-3.40;99.90
10883;DHT22;5494;51.796;10.952;2022-11-20T02:23:32;-3.40;99.90
10883;DHT22;5494;51.796;10.952;2022-11-20T02:26:09;-3.40;99.90
10883;DHT22;5494;51.796;10.952;2022-11-20T02:28:41;-3.40;99.90
10883;DHT22;5494;51.796;10.952;2022-11-20T02:31:10;-3.50;99.90
10883;DHT22;5494;51.796;10.952;2022-11-20T02:33:38;-3.40;99.90
10883;DHT22;5494;51.796;10.952;2022-11-20T02:36:08;-3.50;99.90
10883;DHT22;5494;51.796;10.952;2022-11-20T02:38:42;-3.50;99.90
10883;DHT22;5494;51.796;10.952;2022-11-20T02:41:13;-3.50;99.90
10883;DHT22;5494;51.796;10.952;2022-11-20T02:43:41;-3.50;99.90
10883;DHT22;5494;51.796;10.952;2022-11-20T02:46:10;-3.40;99.90
10883;DHT22;5494;51.796;10.952;2022-11-20T02:48:38;-3.40;99.90
10883;DHT22;5494;51.796;10.952;2022-11-20T02:51:06;-3.50;99.90
10883;DHT22;5494;51.796;10.952;2022-11-20T02:53:35;-3.50;99.90
10883;DHT22;5494;51.796;10.952;2022-11-20T02:56:04;-3.50;99.90
10883;DHT22;5494;51.796;10.952;2022-11-20T02:58:34;-3.50;99.90
10883;DHT22;5494;51.796;10.952;2022-11-20T03:01:03;-3.40;99.90
10883;DHT22;5494;51.796;10.952;2022-11-20T03:03:32;-3.40;99.90
10883;DHT22;5494;51.796;10.952;2022-11-20T03:06:00;-3.40;99.90
10883;DHT22;5494;51.796;10.952;2022-11-20T03:08:29;-3.50;99.90
10883;DHT22;5494;51.796;10.952;2022-11-20T03:11:02;-3.40;99.90
10883;DHT22;5494;51.796;10.952;2022-11-20T03:13:34;-3.40;99.90
10883;DHT22;5494;51.796;10.952;2022-11-20T03:16:11;-1.50;99.90
10883;DHT22;5494;51.796;10.952;2022-11-20T03:18:41;-3.40;99.90
10883;DHT22;5494;51.796;10.952;2022-11-20T03:21:11;-3.50;99.90
10883;DHT22;5494;51.796;10.952;2022-11-20T03:23:41;-3.60;99.90
10883;DHT22;5494;51.796;10.952;2022-11-20T03:26:13;-3.60;99.90
10883;DHT22;5494;51.796;10.952;2022-11-20T03:28:50;-3.60;99.90
10883;DHT22;5494;51.796;10.952;2022-11-20T03:31:22;-3.60;99.90
10883;DHT22;5494;51.796;10.952;2022-11-20T03:33:52;-3.60;99.90
10883;DHT22;5494;51.796;10.952;2022-11-20T03:36:21;-3.60;99.90
10883;DHT22;5494;51.796;10.952;2022-11-20T03:38:50;-3.60;99.90
10883;DHT22;5494;51.796;10.952;2022-11-20T03:41:20;-3.60;99.90
10883;DHT22;5494;51.796;10.952;2022-11-20T03:43:52;-3.60;99.90
10883;DHT22;5494;51.796;10.952;2022-11-20T03:46:22;-3.50;99.90
10883;DHT22;5494;51.796;10.952;2022-11-20T03:48:52;-3.50;99.90
10883;DHT22;5494;51.796;10.952;2022-11-20T03:51:22;-3.50;99.90
10883;DHT22;5494;51.796;10.952;2022-11-20T03:53:53;-3.50;99.90
10883;DHT22;5494;51.796;10.952;2022-11-20T03:56:24;-3.50;99.90
10883;DHT22;5494;51.796;10.952;2022-11-20T03:58:56;-3.50;99.90
10883;DHT22;5494;51.796;10.952;2022-11-20T04:01:26;-3.40;99.90
10883;DHT22;5494;51.796;10.952;2022-11-20T04:03:56;-3.40;99.90
10883;DHT22;5494;51.796;10.952;2022-11-20T04:06:27;-3.40;99.90
10883;DHT22;5494;51.796;10.952;2022-11-20T04:08:58;-3.40;99.90
10883;DHT22;5494;51.796;10.952;2022-11-20T04:11:28;-3.40;99.90
10883;DHT22;5494;51.796;10.952;2022-11-20T04:14:00;-3.40;99.90
10883;DHT22;5494;51.796;10.952;2022-11-20T04:16:31;-3.40;99.90
10883;DHT22;5494;51.796;10.952;2022-11-20T04:19:03;-3.40;99.90
10883;DHT22;5494;51.796;10.952;2022-11-20T04:21:33;-3.40;99.90
10883;DHT22;5494;51.796;10.952;2022-11-20T04:24:02;-3.40;99.90
10883;DHT22;5494;51.796;10.952;2022-11-20T04:26:31;-3.40;99.90
10883;DHT22;5494;51.796;10.952;2022-11-20T04:29:01;-3.40;99.90
10883;DHT22;5494;51.796;10.952;2022-11-20T04:31:32;-3.40;99.90
10883;DHT22;5494;51.796;10.952;2022-11-20T04:34:03;-3.40;99.90
10883;DHT22;5494;51.796;10.952;2022-11-20T04:36:33;-3.40;99.90
10883;DHT22;5494;51.796;10.952;2022-11-20T04:39:04;-3.40;99.90
10883;DHT22;5494;51.796;10.952;2022-11-20T04:41:35;-3.40;99.90
10883;DHT22;5494;51.796;10.952;2022-11-20T04:44:05;-3.40;99.90
10883;DHT22;5494;51.796;10.952;2022-11-20T04:46:35;-3.40;99.90
10883;DHT22;5494;51.796;10.952;2022-11-20T04:49:06;-3.30;99.90
10883;DHT22;5494;51.796;10.952;2022-11-20T04:51:35;-3.30;99.90
10883;DHT22;5494;51.796;10.952;2022-11-20T04:54:04;-3.30;99.90
10883;DHT22;5494;51.796;10.952;2022-11-20T04:56:32;-3.30;99.90
10883;DHT22;5494;51.796;10.952;2022-11-20T04:59:01;-3.40;99.90
10883;DHT22;5494;51.796;10.952;2022-11-20T05:01:32;-3.40;99.90
10883;DHT22;5494;51.796;10.952;2022-11-20T05:04:00;-3.40;99.90
10883;DHT22;5494;51.796;10.952;2022-11-20T05:06:29;-3.30;99.90
10883;DHT22;5494;51.796;10.952;2022-11-20T05:08:57;-3.30;99.90
10883;DHT22;5494;51.796;10.952;2022-11-20T05:11:26;-3.30;99.90
10883;DHT22;5494;51.796;10.952;2022-11-20T05:13:58;-3.30;99.90
10883;DHT22;5494;51.796;10.952;2022-11-20T05:16:27;-3.40;99.90
10883;DHT22;5494;51.796;10.952;2022-11-20T05:18:57;-3.40;99.90
10883;DHT22;5494;51.796;10.952;2022-11-20T05:21:25;-3.30;99.90
10883;DHT22;5494;51.796;10.952;2022-11-20T05:23:54;-3.30;99.90
10883;DHT22;5494;51.796;10.952;2022-11-20T05:26:22;-3.40;99.90
10883;DHT22;5494;51.796;10.952;2022-11-20T05:28:51;-3.40;99.90
10883;DHT22;5494;51.796;10.952;2022-11-20T05:31:21;-3.40;99.90
10883;DHT22;5494;51.796;10.952;2022-11-20T05:33:56;-3.40;99.90
10883;DHT22;5494;51.796;10.952;2022-11-20T05:36:25;-3.50;99.90
10883;DHT22;5494;51.796;10.952;2022-11-20T05:38:53;-3.60;99.90
10883;DHT22;5494;51.796;10.952;2022-11-20T05:41:28;-3.60;99.90
10883;DHT22;5494;51.796;10.952;2022-11-20T05:43:57;-3.60;99.90
10883;DHT22;5494;51.796;10.952;2022-11-20T05:46:26;-3.60;99.90
10883;DHT22;5494;51.796;10.952;2022-11-20T05:48:57;-3.60;99.90
10883;DHT22;5494;51.796;10.952;2022-11-20T05:51:27;-3.70;99.90
10883;DHT22;5494;51.796;10.952;2022-11-20T05:53:56;-3.70;99.90
10883;DHT22;5494;51.796;10.952;2022-11-20T05:56:25;-3.70;99.90
10883;DHT22;5494;51.796;10.952;2022-11-20T05:58:54;-3.70;99.90
10883;DHT22;5494;51.796;10.952;2022-11-20T06:01:24;-3.80;99.90
10883;DHT22;5494;51.796;10.952;2022-11-20T06:03:54;-3.80;99.90
10883;DHT22;5494;51.796;10.952;2022-11-20T06:06:24;-3.80;99.90
10883;DHT22;5494;51.796;10.952;2022-11-20T06:08:53;-3.90;99.90
10883;DHT22;5494;51.796;10.952;2022-11-20T06:11:22;-3.80;99.90
10883;DHT22;5494;51.796;10.952;2022-11-20T06:13:51;-3.70;99.90
10883;DHT22;5494;51.796;10.952;2022-11-20T06:16:20;-3.70;99.90
10883;DHT22;5494;51.796;10.952;2022-11-20T06:18:48;-3.70;99.90
10883;DHT22;5494;51.796;10.952;2022-11-20T06:21:18;-3.70;99.90
10883;DHT22;5494;51.796;10.952;2022-11-20T06:23:50;-3.70;99.90
10883;DHT22;5494;51.796;10.952;2022-11-20T06:26:22;-3.70;99.90
10883;DHT22;5494;51.796;10.952;2022-11-20T06:28:53;-3.80;99.90
10883;DHT22;5494;51.796;10.952;2022-11-20T06:31:24;-3.90;99.90
10883;DHT22;5494;51.796;10.952;2022-11-20T06:33:54;-4.00;99.90
10883;DHT22;5494;51.796;10.952;2022-11-20T06:36:23;-4.00;99.90
10883;DHT22;5494;51.796;10.952;2022-11-20T06:38:53;-4.00;99.90
10883;DHT22;5494;51.796;10.952;2022-11-20T06:41:22;-4.00;99.90
10883;DHT22;5494;51.796;10.952;2022-11-20T06:43:50;-4.00;99.90
10883;DHT22;5494;51.796;10.952;2022-11-20T06:46:20;-4.00;99.90
10883;DHT22;5494;51.796;10.952;2022-11-20T06:48:49;-4.00;99.90
10883;DHT22;5494;51.796;10.952;2022-11-20T06:51:18;-4.00;99.90
10883;DHT22;5494;51.796;10.952;2022-11-20T06:53:48;-4.10;99.90
10883;DHT22;5494;51.796;10.952;2022-11-20T06:56:18;-4.10;99.90
10883;DHT22;5494;51.796;10.952;2022-11-20T06:58:46;-4.10;99.90
10883;DHT22;5494;51.796;10.952;2022-11-20T07:01:15;-4.10;99.90
10883;DHT22;5494;51.796;10.952;2022-11-20T07:03:44;-4.00;99.90
10883;DHT22;5494;51.796;10.952;2022-11-20T07:06:20;-3.90;99.90
10883;DHT22;5494;51.796;10.952;2022-11-20T07:08:50;-3.90;99.90
10883;DHT22;5494;51.796;10.952;2022-11-20T07:11:20;-3.90;99.90
10883;DHT22;5494;51.796;10.952;2022-11-20T07:13:49;-3.70;99.90
10883;DHT22;5494;51.796;10.952;2022-11-20T07:16:17;-3.50;99.90
10883;DHT22;5494;51.796;10.952;2022-11-20T07:18:46;-3.10;99.90
10883;DHT22;5494;51.796;10.952;2022-11-20T07:21:17;-2.80;99.90
10883;DHT22;5494;51.796;10.952;2022-11-20T07:23:45;-2.60;99.90
10883;DHT22;5494;51.796;10.952;2022-11-20T07:26:14;-2.20;99.90
10883;DHT22;5494;51.796;10.952;2022-11-20T07:28:45;-2.00;99.90
10883;DHT22;5494;51.796;10.952;2022-11-20T07:31:14;-1.70;99.90
10883;DHT22;5494;51.796;10.952;2022-11-20T07:33:45;-1.40;99.90
10883;DHT22;5494;51.796;10.952;2022-11-20T07:36:14;-1.20;99.90
10883;DHT22;5494;51.796;10.952;2022-11-20T07:38:43;-1.00;99.90
10883;DHT22;5494;51.796;10.952;2022-11-20T07:41:11;-0.90;99.90
10883;DHT22;5494;51.796;10.952;2022-11-20T07:43:39;-0.70;99.90
10883;DHT22;5494;51.796;10.952;2022-11-20T07:46:10;-0.60;99.90
10883;DHT22;5494;51.796;10.952;2022-11-20T07:48:39;-0.50;99.90
10883;DHT22;5494;51.796;10.952;2022-11-20T07:51:07;-0.20;99.90
10883;DHT22;5494;51.796;10.952;2022-11-20T07:53:36;0.10;99.90
10883;DHT22;5494;51.796;10.952;2022-11-20T07:56:05;0.50;99.90
10883;DHT22;5494;51.796;10.952;2022-11-20T07:58:33;0.80;99.90
10883;DHT22;5494;51.796;10.952;2022-11-20T08:01:03;1.10;99.90
10883;DHT22;5494;51.796;10.952;2022-11-20T08:03:34;1.50;99.90
10883;DHT22;5494;51.796;10.952;2022-11-20T08:06:05;1.80;99.90
10883;DHT22;5494;51.796;10.952;2022-11-20T08:08:34;2.10;99.90
10883;DHT22;5494;51.796;10.952;2022-11-20T08:11:08;2.30;99.90
10883;DHT22;5494;51.796;10.952;2022-11-20T08:13:54;2.60;99.90
10883;DHT22;5494;51.796;10.952;2022-11-20T08:16:42;2.90;99.90
10883;DHT22;5494;51.796;10.952;2022-11-20T08:19:14;3.20;99.90
10883;DHT22;5494;51.796;10.952;2022-11-20T08:21:44;3.40;99.90
10883;DHT22;5494;51.796;10.952;2022-11-20T08:24:13;3.50;99.90
10883;DHT22;5494;51.796;10.952;2022-11-20T08:26:41;3.70;99.90
10883;DHT22;5494;51.796;10.952;2022-11-20T08:29:10;4.00;99.90
10883;DHT22;5494;51.796;10.952;2022-11-20T08:31:39;4.30;99.90
10883;DHT22;5494;51.796;10.952;2022-11-20T08:34:08;4.60;99.90
10883;DHT22;5494;51.796;10.952;2022-11-20T08:36:43;4.80;99.90
10883;DHT22;5494;51.796;10.952;2022-11-20T08:39:12;4.90;99.90
10883;DHT22;5494;51.796;10.952;2022-11-20T08:41:41;5.10;99.90
10883;DHT22;5494;51.796;10.952;2022-11-20T08:44:10;5.30;99.90
10883;DHT22;5494;51.796;10.952;2022-11-20T08:46:40;5.40;99.90
10883;DHT22;5494;51.796;10.952;2022-11-20T08:49:12;5.60;99.90
10883;DHT22;5494;51.796;10.952;2022-11-20T08:51:43;5.80;99.90
10883;DHT22;5494;51.796;10.952;2022-11-20T08:54:12;6.00;99.90
10883;DHT22;5494;51.796;10.952;2022-11-20T08:56:40;6.00;99.90
10883;DHT22;5494;51.796;10.952;2022-11-20T08:59:08;6.10;99.90
10883;DHT22;5494;51.796;10.952;2022-11-20T09:01:57;6.30;99.90
10883;DHT22;5494;51.796;10.952;2022-11-20T09:04:26;6.50;99.90
10883;DHT22;5494;51.796;10.952;2022-11-20T09:06:56;6.70;99.90
10883;DHT22;5494;51.796;10.952;2022-11-20T09:09:24;6.80;99.90
10883;DHT22;5494;51.796;10.952;2022-11-20T09:11:53;7.00;99.90
10883;DHT22;5494;51.796;10.952;2022-11-20T09:14:21;7.10;99.90
10883;DHT22;5494;51.796;10.952;2022-11-20T09:16:51;7.20;99.90
10883;DHT22;5494;51.796;10.952;2022-11-20T09:19:20;7.40;99.90
10883;DHT22;5494;51.796;10.952;2022-11-20T09:22:05;7.50;99.90
10883;DHT22;5494;51.796;10.952;2022-11-20T09:24:34;7.60;99.90
10883;DHT22;5494;51.796;10.952;2022-11-20T09:27:03;7.80;99.90
10883;DHT22;5494;51.796;10.952;2022-11-20T09:29:33;7.50;99.90
10883;DHT22;5494;51.796;10.952;2022-11-20T09:32:01;7.50;99.90
10883;DHT22;5494;51.796;10.952;2022-11-20T09:34:30;7.60;99.90
10883;DHT22;5494;51.796;10.952;2022-11-20T09:36:58;7.60;99.90
10883;DHT22;5494;51.796;10.952;2022-11-20T09:39:34;7.40;99.90
10883;DHT22;5494;51.796;10.952;2022-11-20T09:42:18;7.20;99.90
10883;DHT22;5494;51.796;10.952;2022-11-20T09:45:17;7.10;99.90
10883;DHT22;5494;51.796;10.952;2022-11-20T09:48:00;7.30;99.90
10883;DHT22;5494;51.796;10.952;2022-11-20T09:50:45;7.30;99.90
10883;DHT22;5494;51.796;10.952;2022-11-20T09:53:27;7.50;99.90
10883;DHT22;5494;51.796;10.952;2022-11-20T09:56:04;7.60;99.90
10883;DHT22;5494;51.796;10.952;2022-11-20T09:58:38;7.70;99.90
10883;DHT22;5494;51.796;10.952;2022-11-20T10:01:12;7.90;99.90
10883;DHT22;5494;51.796;10.952;2022-11-20T10:03:53;8.10;99.90
10883;DHT22;5494;51.796;10.952;2022-11-20T10:06:30;8.30;99.90
10883;DHT22;5494;51.796;10.952;2022-11-20T10:09:06;8.40;99.90
10883;DHT22;5494;51.796;10.952;2022-11-20T10:11:57;8.10;99.90
10883;DHT22;5494;51.796;10.952;2022-11-20T10:14:42;8.00;99.90
10883;DHT22;5494;51.796;10.952;2022-11-20T10:17:34;8.00;99.90
10883;DHT22;5494;51.796;10.952;2022-11-20T10:20:28;8.00;99.90
10883;DHT22;5494;51.796;10.952;2022-11-20T10:23:22;8.00;99.90
10883;DHT22;5494;51.796;10.952;2022-11-20T10:26:17;7.90;99.90
10883;DHT22;5494;51.796;10.952;2022-11-20T10:29:06;7.80;99.90
10883;DHT22;5494;51.796;10.952;2022-11-20T10:31:41;7.70;99.90
10883;DHT22;5494;51.796;10.952;2022-11-20T10:34:20;7.50;99.90
10883;DHT22;5494;51.796;10.952;2022-11-20T10:36:55;7.30;99.90
10883;DHT22;5494;51.796;10.952;2022-11-20T10:39:32;7.00;99.90
10883;DHT22;5494;51.796;10.952;2022-11-20T10:42:09;6.80;99.90
10883;DHT22;5494;51.796;10.952;2022-11-20T10:44:49;6.70;99.90
10883;DHT22;5494;51.796;10.952;2022-11-20T10:47:33;6.80;99.90
10883;DHT22;5494;51.796;10.952;2022-11-20T10:50:04;7.00;99.90
10883;DHT22;5494;51.796;10.952;2022-11-20T10:52:43;7.10;99.90
10883;DHT22;5494;51.796;10.952;2022-11-20T10:55:27;7.00;99.90
10883;DHT22;5494;51.796;10.952;2022-11-20T10:58:12;7.10;99.90
10883;DHT22;5494;51.796;10.952;2022-11-20T11:00:44;7.10;99.90
10883;DHT22;5494;51.796;10.952;2022-11-20T11:03:20;7.10;99.90
10883;DHT22;5494;51.796;10.952;2022-11-20T11:05:59;7.10;99.90
10883;DHT22;5494;51.796;10.952;2022-11-20T11:08:37;7.10;99.90
10883;DHT22;5494;51.796;10.952;2022-11-20T11:11:18;7.20;99.90
10883;DHT22;5494;51.796;10.952;2022-11-20T11:13:50;7.30;99.90
10883;DHT22;5494;51.796;10.952;2022-11-20T11:16:24;7.40;99.90
10883;DHT22;5494;51.796;10.952;2022-11-20T11:19:04;7.40;99.90
10883;DHT22;5494;51.796;10.952;2022-11-20T11:21:33;7.40;99.90
10883;DHT22;5494;51.796;10.952;2022-11-20T11:24:04;7.40;99.90
10883;DHT22;5494;51.796;10.952;2022-11-20T11:26:56;7.10;99.90
10883;DHT22;5494;51.796;10.952;2022-11-20T11:29:26;6.90;99.90
10883;DHT22;5494;51.796;10.952;2022-11-20T11:32:05;6.50;99.90
10883;DHT22;5494;51.796;10.952;2022-11-20T11:34:35;6.40;99.90
10883;DHT22;5494;51.796;10.952;2022-11-20T11:37:05;6.40;99.90
10883;DHT22;5494;51.796;10.952;2022-11-20T11:39:42;6.30;99.90
10883;DHT22;5494;51.796;10.952;2022-11-20T11:42:18;6.20;99.90
10883;DHT22;5494;51.796;10.952;2022-11-20T11:44:48;5.90;99.90
10883;DHT22;5494;51.796;10.952;2022-11-20T11:47:47;5.70;99.90
10883;DHT22;5494;51.796;10.952;2022-11-20T11:50:21;5.40;99.90
10883;DHT22;5494;51.796;10.952;2022-11-20T11:53:06;5.10;99.90
10883;DHT22;5494;51.796;10.952;2022-11-20T11:55:40;4.80;99.90
10883;DHT22;5494;51.796;10.952;2022-11-20T11:58:19;4.90;99.90
10883;DHT22;5494;51.796;10.952;2022-11-20T12:00:58;4.40;99.90
10883;DHT22;5494;51.796;10.952;2022-11-20T12:03:35;4.30;99.90
10883;DHT22;5494;51.796;10.952;2022-11-20T12:06:10;4.20;99.90
10883;DHT22;5494;51.796;10.952;2022-11-20T12:08:44;4.10;99.90
10883;DHT22;5494;51.796;10.952;2022-11-20T12:11:24;4.00;99.90
10883;DHT22;5494;51.796;10.952;2022-11-20T12:14:03;4.00;99.90
10883;DHT22;5494;51.796;10.952;2022-11-20T12:16:40;3.90;99.90
10883;DHT22;5494;51.796;10.952;2022-11-20T12:19:12;3.90;99.90
10883;DHT22;5494;51.796;10.952;2022-11-20T12:21:52;3.90;99.90
10883;DHT22;5494;51.796;10.952;2022-11-20T12:24:44;3.90;99.90
10883;DHT22;5494;51.796;10.952;2022-11-20T12:27:56;3.90;99.90
10883;DHT22;5494;51.796;10.952;2022-11-20T12:30:45;3.90;99.90
10883;DHT22;5494;51.796;10.952;2022-11-20T12:33:43;3.90;99.90
10883;DHT22;5494;51.796;10.952;2022-11-20T12:36:27;3.90;99.90
10883;DHT22;5494;51.796;10.952;2022-11-20T12:39:22;3.90;99.90
10883;DHT22;5494;51.796;10.952;2022-11-20T12:42:18;3.90;99.90
10883;DHT22;5494;51.796;10.952;2022-11-20T12:45:35;3.80;99.90
10883;DHT22;5494;51.796;10.952;2022-11-20T12:49:08;3.90;99.90
10883;DHT22;5494;51.796;10.952;2022-11-20T12:52:11;4.00;99.90
10883;DHT22;5494;51.796;10.952;2022-11-20T12:55:07;4.00;99.90
10883;DHT22;5494;51.796;10.952;2022-11-20T12:57:53;3.90;99.90
10883;DHT22;5494;51.796;10.952;2022-11-20T13:00:26;3.90;99.90
10883;DHT22;5494;51.796;10.952;2022-11-20T13:06:15;3.70;99.90
10883;DHT22;5494;51.796;10.952;2022-11-20T13:08:49;3.40;99.90
10883;DHT22;5494;51.796;10.952;2022-11-20T13:11:27;3.30;99.90
10883;DHT22;5494;51.796;10.952;2022-11-20T13:14:10;3.20;99.90
10883;DHT22;5494;51.796;10.952;2022-11-20T13:16:52;3.10;99.90
10883;DHT22;5494;51.796;10.952;2022-11-20T13:19:32;3.00;99.90
10883;DHT22;5494;51.796;10.952;2022-11-20T13:22:01;2.90;99.90
10883;DHT22;5494;51.796;10.952;2022-11-20T13:24:32;2.80;99.90
10883;DHT22;5494;51.796;10.952;2022-11-20T13:27:17;2.80;99.90
10883;DHT22;5494;51.796;10.952;2022-11-20T13:30:00;2.80;99.90
10883;DHT22;5494;51.796;10.952;2022-11-20T13:32:48;2.70;99.90
10883;DHT22;5494;51.796;10.952;2022-11-20T13:35:29;2.60;99.90
10883;DHT22;5494;51.796;10.952;2022-11-20T13:38:02;2.60;99.90
10883;DHT22;5494;51.796;10.952;2022-11-20T13:40:36;2.60;99.90
10883;DHT22;5494;51.796;10.952;2022-11-20T13:43:19;2.60;99.90
10883;DHT22;5494;51.796;10.952;2022-11-20T13:45:56;2.50;99.90
10883;DHT22;5494;51.796;10.952;2022-11-20T13:48:29;2.40;99.90
10883;DHT22;5494;51.796;10.952;2022-11-20T13:51:10;2.30;99.90
10883;DHT22;5494;51.796;10.952;2022-11-20T13:53:53;2.20;99.90
10883;DHT22;5494;51.796;10.952;2022-11-20T13:56:43;2.30;99.90
10883;DHT22;5494;51.796;10.952;2022-11-20T13:59:33;2.30;99.90
10883;DHT22;5494;51.796;10.952;2022-11-20T14:02:11;2.30;99.90
10883;DHT22;5494;51.796;10.952;2022-11-20T14:04:45;2.30;99.90
10883;DHT22;5494;51.796;10.952;2022-11-20T14:07:16;2.30;99.90
10883;DHT22;5494;51.796;10.952;2022-11-20T14:09:51;2.30;99.90
10883;DHT22;5494;51.796;10.952;2022-11-20T14:12:23;2.40;99.90
10883;DHT22;5494;51.796;10.952;2022-11-20T14:14:57;2.30;99.90
10883;DHT22;5494;51.796;10.952;2022-11-20T14:17:31;2.20;99.90
10883;DHT22;5494;51.796;10.952;2022-11-20T14:20:02;2.10;99.90
10883;DHT22;5494;51.796;10.952;2022-11-20T14:22:33;2.10;99.90
10883;DHT22;5494;51.796;10.952;2022-11-20T14:25:05;2.10;99.90
10883;DHT22;5494;51.796;10.952;2022-11-20T14:27:38;2.00;99.90
10883;DHT22;5494;51.796;10.952;2022-11-20T14:30:13;1.90;99.90
10883;DHT22;5494;51.796;10.952;2022-11-20T14:32:45;1.90;99.90
10883;DHT22;5494;51.796;10.952;2022-11-20T14:35:23;2.00;99.90
10883;DHT22;5494;51.796;10.952;2022-11-20T14:37:54;1.90;99.90
10883;DHT22;5494;51.796;10.952;2022-11-20T14:40:26;1.70;99.90
10883;DHT22;5494;51.796;10.952;2022-11-20T14:42:59;1.60;99.90
10883;DHT22;5494;51.796;10.952;2022-11-20T14:45:27;1.50;99.90
10883;DHT22;5494;51.796;10.952;2022-11-20T14:47:57;1.40;99.90
10883;DHT22;5494;51.796;10.952;2022-11-20T14:50:28;1.40;99.90
10883;DHT22;5494;51.796;10.952;2022-11-20T14:52:59;1.30;99.90
10883;DHT22;5494;51.796;10.952;2022-11-20T14:55:31;1.20;99.90
10883;DHT22;5494;51.796;10.952;2022-11-20T14:58:03;1.10;99.90
10883;DHT22;5494;51.796;10.952;2022-11-20T15:00:34;1.10;99.90
10883;DHT22;5494;51.796;10.952;2022-11-20T15:03:15;1.10;99.90
10883;DHT22;5494;51.796;10.952;2022-11-20T15:05:46;1.10;99.90
10883;DHT22;5494;51.796;10.952;2022-11-20T15:08:16;1.10;99.90
10883;DHT22;5494;51.796;10.952;2022-11-20T15:10:49;1.10;99.90
10883;DHT22;5494;51.796;10.952;2022-11-20T15:13:25;1.00;99.90
10883;DHT22;5494;51.796;10.952;2022-11-20T15:15:58;1.10;99.90
10883;DHT22;5494;51.796;10.952;2022-11-20T15:18:36;1.10;99.90
10883;DHT22;5494;51.796;10.952;2022-11-20T15:21:11;1.10;99.90
10883;DHT22;5494;51.796;10.952;2022-11-20T15:23:40;1.00;99.90
10883;DHT22;5494;51.796;10.952;2022-11-20T15:26:11;0.90;99.90
10883;DHT22;5494;51.796;10.952;2022-11-20T15:28:48;1.00;99.90
10883;DHT22;5494;51.796;10.952;2022-11-20T15:31:19;1.10;99.90
10883;DHT22;5494;51.796;10.952;2022-11-20T15:33:50;1.10;99.90
10883;DHT22;5494;51.796;10.952;2022-11-20T15:36:18;1.00;99.90
10883;DHT22;5494;51.796;10.952;2022-11-20T15:38:47;0.90;99.90
10883;DHT22;5494;51.796;10.952;2022-11-20T15:41:16;0.90;99.90
10883;DHT22;5494;51.796;10.952;2022-11-20T15:43:44;0.80;99.90
10883;DHT22;5494;51.796;10.952;2022-11-20T15:46:16;0.70;99.90
10883;DHT22;5494;51.796;10.952;2022-11-20T15:48:51;0.60;99.90
10883;DHT22;5494;51.796;10.952;2022-11-20T15:51:27;0.60;99.90
10883;DHT22;5494;51.796;10.952;2022-11-20T15:53:57;0.60;99.90
10883;DHT22;5494;51.796;10.952;2022-11-20T15:56:26;0.50;99.90
10883;DHT22;5494;51.796;10.952;2022-11-20T15:58:54;0.50;99.90
10883;DHT22;5494;51.796;10.952;2022-11-20T16:01:24;0.40;99.90
10883;DHT22;5494;51.796;10.952;2022-11-20T16:03:53;0.30;99.90
10883;DHT22;5494;51.796;10.952;2022-11-20T16:06:21;0.30;99.90
10883;DHT22;5494;51.796;10.952;2022-11-20T16:08:50;0.30;99.90
10883;DHT22;5494;51.796;10.952;2022-11-20T16:11:19;0.30;99.90
10883;DHT22;5494;51.796;10.952;2022-11-20T16:13:47;0.30;99.90
10883;DHT22;5494;51.796;10.952;2022-11-20T16:16:35;0.30;99.90
10883;DHT22;5494;51.796;10.952;2022-11-20T16:19:10;0.20;99.90
10883;DHT22;5494;51.796;10.952;2022-11-20T16:21:40;0.20;99.90